Hauptseite
METAR-TAF:

METAR-TAF

Flughäfen :

Bohrplattform

Heimdal, Norwegen

Breite: 59-34-12N, Länge: 2-13-48E, Höhe: 10 m

Beobachtung

Neuester Wetterbericht von vor 21 Minuten, um 05:20 UTC
Wind 10 kt aus West
Temperatur 11°C
Luftfeuchtigkeit 71%
Luftdruck 1014 hPa
Sichtweite 10 km oder mehr
Leicht bewölkt in der Höhe von 3500 ft
Aufgelockert bewölkt in der Höhe von 5500 ft

METAR: ENHM 090520Z 27010KT 9999 FEW035 SCT055 11/06 Q1014 W04/S3

Zeit: 07:41 (05:41 UTC)

Prognose

Neuester Wetterbericht von vor 18 Stunden und 41 Minuten, um 11:00 UTC
Gültige Prognose vom 08 um 12 UTC bis 08 um 17 UTC
Wind 18 kt aus Nord/Nordwest
Sichtweite 10 km oder mehr
Leicht bewölkt in der Höhe von 2000 ft, Towering cumulus.
Durchbrochene Bewölkung in der Höhe von 3500 ft
Regenschauer

TAF: ENHM 081100Z 0812/0817 33018KT 9999 -SHRA FEW020TCU BKN035

Wetterbeobachtungen und Prognosen von mehr als 4000 Flughäfen (METAR und TAF Bericht).

Die verfügbaren Stationen werden durch gelbe und rote Markierungen auf der Karte dargestellt.

Führen Sie die Maus auf sie, um den Namen der Station zu sehen.

Darauf klicken, um die Beobachtung von Wetterbeobachtungen und Prognosen zu sehen.

Um die Karte zu ändern : klicken Sie auf den grünen Tasten mit einem schwarzen Kreuz Zum Vergrößern, auf den grünen Button mit einem Gedankenstrich zu verkleinern, oder auf die grünen Pfeile für benachbarte Karten.


METAR-TAF: